Time;durP1;ratioP1;P1;durP2;ratioP2;P2;SDS_P1;SDS_P2;PMS_P1;PMS_P2;Temp;Humidity;BMP_temperature;BMP_pressure;BME280_temperature;BME280_humidity;BME280_pressure;Samples;Min_cycle;Max_cycle;Signal;HPM_P1;HPM_P2
2022/09/04 00:01:35;;;;;;;8.30;6.13;;;;;;;;;;5004810;28;20047;-71
2022/09/04 00:04:20;;;;;;;7.43;5.72;;;;;;;;;;5008801;28;20125;-74
2022/09/04 00:07:02;;;;;;;8.10;6.82;;;;;;;;;;4997195;28;20046;-77
2022/09/04 00:09:40;;;;;;;6.95;6.25;;;;;;;;;;4995228;28;20011;-78
2022/09/04 00:12:10;;;;;;;8.27;6.60;;;;;;;;;;4996914;28;20031;-75
2022/09/04 00:14:38;;;;;;;7.40;6.30;;;;;;;;;;4998820;28;20031;-73
2022/09/04 00:17:07;;;;;;;7.72;6.80;;;;;;;;;;4997830;28;20007;-74
2022/09/04 00:19:43;;;;;;;7.88;6.35;;;;;;;;;;4993652;28;20034;-77
2022/09/04 00:22:28;;;;;;;9.63;6.63;;;;;;;;;;5000052;28;20035;-77
2022/09/04 00:25:03;;;;;;;7.10;6.13;;;;;;;;;;5001305;28;20031;-77
2022/09/04 00:27:32;;;;;;;7.78;6.38;;;;;;;;;;4984818;28;20035;-75
2022/09/04 00:29:59;;;;;;;6.60;5.90;;;;;;;;;;5001594;28;20038;-78
2022/09/04 00:32:48;;;;;;;8.32;6.45;;;;;;;;;;5001213;28;20018;-78
2022/09/04 00:35:23;;;;;;;10.38;6.57;;;;;;;;;;5001508;28;20039;-77
2022/09/04 00:38:08;;;;;;;9.00;6.63;;;;;;;;;;4998983;28;20030;-75
2022/09/04 00:40:40;;;;;;;7.47;6.30;;;;;;;;;;5004299;28;20015;-73
2022/09/04 00:43:14;;;;;;;7.30;6.60;;;;;;;;;;5016753;28;20026;-72
2022/09/04 00:45:40;;;;;;;8.48;6.88;;;;;;;;;;5002766;28;20086;-72
2022/09/04 00:48:12;;;;;;;8.13;7.30;;;;;;;;;;4996837;28;20034;-72
2022/09/04 00:50:54;;;;;;;10.93;7.85;;;;;;;;;;5006599;28;20023;-74
2022/09/04 00:53:23;;;;;;;13.45;9.00;;;;;;;;;;4995930;28;20027;-71
2022/09/04 00:55:58;;;;;;;12.50;8.85;;;;;;;;;;4997850;28;20030;-72
2022/09/04 00:58:41;;;;;;;12.63;11.27;;;;;;;;;;4998299;28;20030;-72
2022/09/04 01:01:12;;;;;;;12.10;10.77;;;;;;;;;;4995116;28;20400;-76
2022/09/04 01:03:48;;;;;;;14.52;11.68;;;;;;;;;;5014799;28;20049;-74
2022/09/04 01:06:17;;;;;;;15.10;12.38;;;;;;;;;;5011862;28;20476;-79
2022/09/04 01:08:49;;;;;;;15.68;12.30;;;;;;;;;;5001628;28;20030;-79
2022/09/04 01:11:38;;;;;;;15.80;12.80;;;;;;;;;;4994687;28;20031;-74
2022/09/04 01:14:15;;;;;;;15.75;12.75;;;;;;;;;;4991330;28;20504;-76
2022/09/04 01:16:43;;;;;;;15.48;13.88;;;;;;;;;;5003199;28;20033;-79
2022/09/04 01:19:29;;;;;;;14.02;12.63;;;;;;;;;;4990034;28;20106;-80
2022/09/04 01:22:00;;;;;;;14.70;13.18;;;;;;;;;;4989059;28;20086;-75
2022/09/04 01:24:45;;;;;;;16.63;14.45;;;;;;;;;;4990054;28;20086;-81
2022/09/04 01:27:29;;;;;;;18.10;16.23;;;;;;;;;;4989282;28;20043;-81
2022/09/04 01:30:04;;;;;;;16.65;14.90;;;;;;;;;;4992909;28;20022;-82
2022/09/04 01:32:39;;;;;;;17.33;15.57;;;;;;;;;;4992689;28;20491;-78
2022/09/04 01:35:08;;;;;;;18.42;16.30;;;;;;;;;;4989453;28;20031;-81
2022/09/04 01:37:50;;;;;;;21.67;19.20;;;;;;;;;;4991693;28;20037;-76
2022/09/04 01:40:35;;;;;;;21.27;19.17;;;;;;;;;;4999739;28;20503;-76
2022/09/04 01:43:06;;;;;;;21.92;19.73;;;;;;;;;;4993919;28;20034;-74
2022/09/04 01:45:48;;;;;;;21.38;19.25;;;;;;;;;;4985622;28;20039;-78
2022/09/04 01:48:17;;;;;;;22.17;19.92;;;;;;;;;;4988379;28;20030;-76
2022/09/04 01:50:45;;;;;;;19.70;17.70;;;;;;;;;;4990712;28;20111;-82
2022/09/04 01:53:27;;;;;;;19.60;17.42;;;;;;;;;;4986288;28;20037;-84
2022/09/04 01:56:12;;;;;;;20.00;18.05;;;;;;;;;;4988159;28;20031;-82
2022/09/04 01:59:02;;;;;;;24.67;19.27;;;;;;;;;;4990523;28;20030;-81
2022/09/04 02:01:37;;;;;;;23.33;20.92;;;;;;;;;;4981738;28;20057;-81
2022/09/04 02:04:17;;;;;;;30.00;21.77;;;;;;;;;;5000655;28;20099;-82
2022/09/04 02:06:52;;;;;;;23.00;20.60;;;;;;;;;;4995706;28;20046;-82
2022/09/04 02:09:29;;;;;;;22.40;19.77;;;;;;;;;;4990554;28;20029;-82
2022/09/04 02:12:04;;;;;;;25.38;19.48;;;;;;;;;;5003434;28;20053;-80
2022/09/04 02:14:33;;;;;;;28.60;25.70;;;;;;;;;;5004835;28;20023;-83
2022/09/04 02:17:07;;;;;;;28.52;25.63;;;;;;;;;;5009747;28;20050;-79
2022/09/04 02:19:50;;;;;;;27.65;24.48;;;;;;;;;;5001535;28;20054;-74
2022/09/04 02:22:28;;;;;;;26.85;24.15;;;;;;;;;;5016500;28;20034;-75
2022/09/04 02:25:04;;;;;;;25.80;23.10;;;;;;;;;;5000305;28;20071;-78
2022/09/04 02:27:45;;;;;;;24.98;22.02;;;;;;;;;;4996452;28;20019;-75
2022/09/04 02:30:12;;;;;;;23.10;20.85;;;;;;;;;;5000353;28;20046;-78
2022/09/04 02:32:42;;;;;;;23.23;20.83;;;;;;;;;;4999487;28;20061;-75
2022/09/04 02:35:14;;;;;;;22.92;20.42;;;;;;;;;;4999035;28;20054;-74
2022/09/04 02:37:49;;;;;;;24.17;20.35;;;;;;;;;;4998531;28;20022;-76
2022/09/04 02:40:26;;;;;;;21.52;19.23;;;;;;;;;;5000107;28;20014;-72
2022/09/04 02:42:52;;;;;;;21.63;18.83;;;;;;;;;;4999261;28;20042;-75
2022/09/04 02:45:37;;;;;;;20.90;18.10;;;;;;;;;;4982528;28;20031;-72
2022/09/04 02:48:21;;;;;;;20.92;17.30;;;;;;;;;;4996794;28;20047;-72
2022/09/04 02:50:50;;;;;;;22.60;18.17;;;;;;;;;;4996657;28;20027;-74
2022/09/04 02:53:40;;;;;;;22.45;20.05;;;;;;;;;;4998255;28;20030;-73
2022/09/04 02:56:30;;;;;;;20.58;18.23;;;;;;;;;;4998471;28;20022;-73
2022/09/04 02:59:08;;;;;;;23.25;18.13;;;;;;;;;;4995001;28;20489;-72
2022/09/04 03:01:39;;;;;;;20.52;18.33;;;;;;;;;;5000140;28;20054;-73
2022/09/04 03:04:26;;;;;;;21.70;17.13;;;;;;;;;;4995397;28;20034;-75
2022/09/04 03:07:14;;;;;;;20.38;17.45;;;;;;;;;;5014464;28;20046;-78
2022/09/04 03:10:01;;;;;;;20.83;17.02;;;;;;;;;;5014015;28;20081;-76
2022/09/04 03:15:40;;;;;;;20.70;16.70;;;;;;;;;;4921551;29;20024;-74
2022/09/04 03:18:24;;;;;;;22.50;16.20;;;;;;;;;;4919283;29;20036;-75
2022/09/04 03:20:56;;;;;;;18.00;15.05;;;;;;;;;;4920147;29;20024;-73
2022/09/04 03:23:32;;;;;;;16.17;14.43;;;;;;;;;;4922722;29;20108;-73
2022/09/04 03:26:00;;;;;;;16.52;14.15;;;;;;;;;;4952738;29;20070;-74
2022/09/04 03:28:39;;;;;;;19.60;15.82;;;;;;;;;;4938988;29;20024;-74
2022/09/04 03:31:16;;;;;;;20.23;15.90;;;;;;;;;;4935148;29;20047;-77
2022/09/04 03:33:46;;;;;;;21.17;17.52;;;;;;;;;;4937905;29;20132;-74
2022/09/04 03:36:15;;;;;;;21.60;17.17;;;;;;;;;;4921013;29;20021;-74
2022/09/04 03:38:48;;;;;;;22.17;17.55;;;;;;;;;;4921393;29;20024;-73
2022/09/04 03:41:29;;;;;;;20.23;18.05;;;;;;;;;;4920104;29;20028;-75
2022/09/04 03:44:13;;;;;;;22.13;19.15;;;;;;;;;;4918251;29;20051;-74
2022/09/04 03:46:39;;;;;;;21.55;18.40;;;;;;;;;;4933125;29;20036;-74
2022/09/04 03:49:12;;;;;;;24.20;20.33;;;;;;;;;;4954899;28;20049;-75
2022/09/04 03:51:57;;;;;;;23.98;19.00;;;;;;;;;;5003399;28;20034;-78
2022/09/04 03:54:33;;;;;;;23.33;19.42;;;;;;;;;;4995356;28;20592;-76
2022/09/04 03:57:15;;;;;;;24.67;20.83;;;;;;;;;;5006647;28;20021;-75
2022/09/04 04:00:00;;;;;;;28.05;22.80;;;;;;;;;;5016160;28;20030;-78
2022/09/04 04:02:38;;;;;;;26.25;21.73;;;;;;;;;;5016642;28;20061;-77
2022/09/04 04:05:23;;;;;;;27.95;24.90;;;;;;;;;;4994114;28;20110;-79
2022/09/04 04:07:58;;;;;;;30.50;24.13;;;;;;;;;;4994365;28;20039;-76
2022/09/04 04:10:45;;;;;;;29.67;24.98;;;;;;;;;;4993595;28;20030;-77
2022/09/04 04:13:23;;;;;;;29.92;24.50;;;;;;;;;;4992520;28;20066;-75
2022/09/04 04:15:50;;;;;;;31.00;24.08;;;;;;;;;;4991296;28;20037;-76
2022/09/04 04:18:33;;;;;;;27.45;23.40;;;;;;;;;;4998864;28;20070;-77
2022/09/04 04:21:05;;;;;;;30.50;25.23;;;;;;;;;;5002507;28;20009;-77
2022/09/04 04:23:35;;;;;;;32.45;24.60;;;;;;;;;;5016544;28;20256;-77
2022/09/04 04:26:01;;;;;;;32.30;26.40;;;;;;;;;;5003132;28;20034;-77
2022/09/04 04:28:55;;;;;;;30.70;26.13;;;;;;;;;;5005641;28;20034;-78
2022/09/04 04:31:21;;;;;;;30.60;26.92;;;;;;;;;;4996094;28;20393;-79
2022/09/04 04:34:07;;;;;;;31.08;24.63;;;;;;;;;;5007917;28;20054;-78
2022/09/04 04:36:41;;;;;;;32.03;26.45;;;;;;;;;;4985088;28;20073;-77
2022/09/04 04:39:13;;;;;;;30.30;26.02;;;;;;;;;;4998370;28;20076;-78
2022/09/04 04:42:03;;;;;;;31.33;27.00;;;;;;;;;;4995805;28;20010;-77
2022/09/04 04:45:48;;;;;;;34.38;25.40;;;;;;;;;;5008344;28;20039;-77
2022/09/04 04:47:34;;;;;;;34.38;27.10;;;;;;;;;;4998168;28;20022;-75
2022/09/04 04:50:00;;;;;;;33.58;27.42;;;;;;;;;;5008899;28;20002;-78
2022/09/04 04:52:48;;;;;;;34.00;27.90;;;;;;;;;;5007482;28;20018;-78
2022/09/04 04:55:30;;;;;;;35.38;30.17;;;;;;;;;;5003851;28;20041;-74
2022/09/04 04:57:59;;;;;;;37.58;30.15;;;;;;;;;;5004588;28;20037;-76
2022/09/04 05:00:35;;;;;;;36.60;30.38;;;;;;;;;;5007845;28;20121;-77
2022/09/04 05:03:14;;;;;;;34.15;27.73;;;;;;;;;;4981142;28;20094;-78
2022/09/04 05:06:19;;;;;;;32.55;29.05;;;;;;;;;;4999514;28;20034;-73
2022/09/04 05:09:03;;;;;;;33.38;28.05;;;;;;;;;;4949791;29;20036;-76
2022/09/04 05:11:47;;;;;;;34.58;27.65;;;;;;;;;;4938084;29;20518;-74
2022/09/04 05:14:17;;;;;;;33.80;28.33;;;;;;;;;;4945234;29;20047;-70
2022/09/04 05:16:51;;;;;;;29.40;25.25;;;;;;;;;;4942381;29;20104;-71
2022/09/04 05:19:19;;;;;;;28.40;24.75;;;;;;;;;;4929865;29;20483;-77
2022/09/04 05:21:51;;;;;;;29.88;25.30;;;;;;;;;;4925353;29;20039;-75
2022/09/04 05:24:23;;;;;;;27.02;24.13;;;;;;;;;;4949369;29;20039;-75
2022/09/04 05:26:58;;;;;;;25.23;20.98;;;;;;;;;;4952322;29;20051;-76
2022/09/04 05:29:34;;;;;;;23.60;19.35;;;;;;;;;;4948135;29;20023;-76
2022/09/04 05:32:03;;;;;;;22.35;19.92;;;;;;;;;;4938396;29;20039;-74
2022/09/04 05:34:35;;;;;;;31.08;24.90;;;;;;;;;;4943339;29;20413;-77
2022/09/04 05:37:12;;;;;;;36.38;29.15;;;;;;;;;;4936272;29;20035;-75
2022/09/04 05:39:57;;;;;;;36.40;31.15;;;;;;;;;;4979976;28;20042;-76
2022/09/04 05:42:32;;;;;;;34.63;27.48;;;;;;;;;;4999290;28;20022;-78
2022/09/04 05:45:04;;;;;;;26.63;23.77;;;;;;;;;;5006804;28;20026;-80
2022/09/04 05:47:39;;;;;;;24.63;21.67;;;;;;;;;;4991146;28;20035;-89
2022/09/04 05:50:09;;;;;;;22.30;19.63;;;;;;;;;;4983166;28;20054;-79
2022/09/04 05:52:38;;;;;;;22.80;20.33;;;;;;;;;;4985883;28;20031;-84
2022/09/04 05:55:18;;;;;;;21.17;18.33;;;;;;;;;;5001787;28;20379;-74
2022/09/04 05:58:02;;;;;;;21.20;18.27;;;;;;;;;;4967977;28;20037;-80
2022/09/04 06:01:01;;;;;;;22.00;19.08;;;;;;;;;;5010700;28;20526;-84
2022/09/04 06:03:35;;;;;;;21.95;19.42;;;;;;;;;;4917545;29;20048;-80
2022/09/04 06:06:07;;;;;;;21.45;19.25;;;;;;;;;;4938774;29;20048;-75
2022/09/04 06:09:00;;;;;;;21.05;18.05;;;;;;;;;;4931983;29;20074;-74
2022/09/04 06:11:29;;;;;;;23.45;18.25;;;;;;;;;;4924517;29;20430;-78
2022/09/04 06:14:27;;;;;;;21.27;18.60;;;;;;;;;;4919005;29;20450;-80
2022/09/04 06:16:53;;;;;;;22.90;18.92;;;;;;;;;;4887268;29;20044;-85
2022/09/04 06:19:25;;;;;;;19.83;17.75;;;;;;;;;;4882533;29;20077;-75
2022/09/04 06:21:51;;;;;;;19.52;17.33;;;;;;;;;;4890526;29;20065;-74
2022/09/04 06:24:36;;;;;;;21.00;16.92;;;;;;;;;;4882246;29;20591;-71
2022/09/04 06:27:14;;;;;;;21.77;16.30;;;;;;;;;;4880097;29;20051;-76
2022/09/04 06:29:59;;;;;;;21.63;17.00;;;;;;;;;;4879811;29;20060;-76
2022/09/04 06:32:43;;;;;;;21.58;16.17;;;;;;;;;;4886869;29;20503;-76
2022/09/04 06:35:09;;;;;;;17.83;15.75;;;;;;;;;;4889660;29;20110;-81
2022/09/04 06:37:38;;;;;;;18.50;16.33;;;;;;;;;;4870683;29;20037;-79
2022/09/04 06:40:18;;;;;;;17.90;14.90;;;;;;;;;;4895905;29;20044;-80
2022/09/04 06:43:02;;;;;;;18.42;16.30;;;;;;;;;;4891938;29;20029;-75
2022/09/04 06:45:42;;;;;;;16.98;15.05;;;;;;;;;;4899864;29;20048;-76
2022/09/04 06:48:08;;;;;;;21.65;16.60;;;;;;;;;;4882750;29;20044;-76
2022/09/04 06:50:55;;;;;;;20.30;16.00;;;;;;;;;;4899071;29;20091;-74
2022/09/04 06:53:31;;;;;;;17.80;15.00;;;;;;;;;;4886443;29;20037;-78
2022/09/04 06:56:08;;;;;;;17.40;15.60;;;;;;;;;;4884747;29;20108;-81
2022/09/04 06:58:37;;;;;;;17.77;15.85;;;;;;;;;;4890907;29;20434;-76
2022/09/04 07:01:10;;;;;;;17.90;15.48;;;;;;;;;;4886680;29;20120;-79
2022/09/04 07:03:54;;;;;;;18.60;15.15;;;;;;;;;;4917703;29;20028;-77
2022/09/04 07:06:32;;;;;;;17.75;15.55;;;;;;;;;;4906547;29;20040;-72
2022/09/04 07:09:25;;;;;;;21.13;16.48;;;;;;;;;;4926012;29;20031;-78
2022/09/04 07:11:53;;;;;;;18.45;15.15;;;;;;;;;;4898767;29;20099;-75
2022/09/04 07:14:19;;;;;;;22.30;14.43;;;;;;;;;;4910174;29;20574;-78
2022/09/04 07:17:04;;;;;;;15.85;14.15;;;;;;;;;;4914566;29;20483;-79
2022/09/04 07:19:38;;;;;;;16.52;14.73;;;;;;;;;;4905142;29;20064;-77
2022/09/04 07:22:33;;;;;;;16.80;14.90;;;;;;;;;;4905090;29;20506;-77
2022/09/04 07:25:18;;;;;;;18.75;14.57;;;;;;;;;;4865157;29;20100;-77
2022/09/04 07:27:44;;;;;;;16.45;14.40;;;;;;;;;;4874096;29;20044;-78
2022/09/04 07:30:15;;;;;;;15.65;14.07;;;;;;;;;;4883268;29;20037;-73
2022/09/04 07:32:46;;;;;;;14.85;13.32;;;;;;;;;;4914456;29;20024;-78
2022/09/04 07:35:24;;;;;;;14.88;13.27;;;;;;;;;;4903871;29;20472;-77
2022/09/04 07:37:57;;;;;;;14.68;13.07;;;;;;;;;;4912101;29;20427;-78
2022/09/04 07:40:23;;;;;;;16.52;12.75;;;;;;;;;;4901846;29;20478;-77
2022/09/04 07:42:53;;;;;;;15.52;11.80;;;;;;;;;;4907344;29;20044;-77
2022/09/04 07:45:38;;;;;;;13.30;11.90;;;;;;;;;;4907510;29;20024;-81
2022/09/04 07:48:06;;;;;;;13.63;10.82;;;;;;;;;;4913717;29;20182;-79
2022/09/04 07:50:38;;;;;;;12.25;11.15;;;;;;;;;;4923325;29;20038;-79
2022/09/04 07:53:23;;;;;;;15.40;10.60;;;;;;;;;;4917935;29;20443;-84
2022/09/04 07:55:52;;;;;;;12.98;11.27;;;;;;;;;;4913893;29;20035;-80
2022/09/04 07:58:27;;;;;;;12.63;11.32;;;;;;;;;;4924614;29;20482;-82
2022/09/04 08:01:08;;;;;;;16.38;12.20;;;;;;;;;;4939905;28;20054;-77
2022/09/04 08:03:34;;;;;;;12.27;11.07;;;;;;;;;;5003829;28;20026;-77
2022/09/04 08:06:12;;;;;;;15.77;11.80;;;;;;;;;;4990752;28;20041;-74
2022/09/04 08:08:41;;;;;;;18.10;12.38;;;;;;;;;;4984951;28;20477;-77
2022/09/04 08:11:15;;;;;;;16.35;12.93;;;;;;;;;;4980675;28;20089;-71
2022/09/04 08:13:41;;;;;;;17.08;13.73;;;;;;;;;;4981968;28;20045;-72
2022/09/04 08:16:28;;;;;;;14.75;12.88;;;;;;;;;;4995776;28;20033;-71
2022/09/04 08:18:57;;;;;;;14.27;12.80;;;;;;;;;;4909822;29;20102;-78
2022/09/04 08:21:30;;;;;;;14.00;12.60;;;;;;;;;;4898074;29;20040;-75
2022/09/04 08:24:03;;;;;;;16.08;12.27;;;;;;;;;;4915028;29;20032;-71
2022/09/04 08:26:32;;;;;;;15.35;13.23;;;;;;;;;;4911250;29;20048;-71
2022/09/04 08:29:17;;;;;;;15.27;12.13;;;;;;;;;;4916319;29;20067;-74
2022/09/04 08:32:04;;;;;;;14.10;12.70;;;;;;;;;;4904939;29;20331;-77
2022/09/04 08:34:46;;;;;;;14.25;12.85;;;;;;;;;;4920301;29;20042;-72
2022/09/04 08:37:18;;;;;;;13.57;12.25;;;;;;;;;;4899536;29;20486;-69
2022/09/04 08:39:44;;;;;;;13.75;12.32;;;;;;;;;;4915752;29;20107;-68
2022/09/04 08:42:12;;;;;;;15.20;12.52;;;;;;;;;;4915639;29;20106;-73
2022/09/04 08:45:05;;;;;;;14.18;12.73;;;;;;;;;;4915787;29;20039;-73
2022/09/04 08:47:57;;;;;;;15.48;13.85;;;;;;;;;;4909132;29;20040;-73
2022/09/04 08:50:28;;;;;;;18.58;15.35;;;;;;;;;;4914650;29;20043;-82
2022/09/04 08:52:57;;;;;;;17.25;14.25;;;;;;;;;;4917398;29;20036;-82
2022/09/04 08:55:38;;;;;;;18.13;15.27;;;;;;;;;;4928832;28;20030;-80
2022/09/04 08:58:04;;;;;;;16.50;14.80;;;;;;;;;;4976543;28;20070;-82
2022/09/04 09:00:33;;;;;;;17.30;14.65;;;;;;;;;;4978071;28;20153;-82
2022/09/04 09:03:17;;;;;;;15.68;14.07;;;;;;;;;;4978560;28;20023;-82
2022/09/04 09:05:54;;;;;;;18.45;14.07;;;;;;;;;;4980158;28;20066;-76
2022/09/04 09:08:35;;;;;;;15.50;13.90;;;;;;;;;;4989730;28;20031;-80
2022/09/04 09:11:20;;;;;;;15.57;13.98;;;;;;;;;;4981684;28;20085;-82
2022/09/04 09:14:04;;;;;;;18.27;14.70;;;;;;;;;;4978023;28;20019;-80
2022/09/04 09:16:43;;;;;;;15.38;13.40;;;;;;;;;;4981361;28;20030;-71
2022/09/04 09:19:22;;;;;;;14.18;12.75;;;;;;;;;;4979105;28;20413;-79
2022/09/04 09:22:07;;;;;;;17.40;13.93;;;;;;;;;;4981446;28;20023;-85
2022/09/04 09:24:52;;;;;;;14.85;13.30;;;;;;;;;;4976328;28;20029;-86
2022/09/04 09:27:37;;;;;;;14.20;12.80;;;;;;;;;;4976955;28;20046;-86
2022/09/04 09:30:22;;;;;;;14.10;12.63;;;;;;;;;;4977043;28;20038;-86
2022/09/04 09:33:06;;;;;;;14.93;13.43;;;;;;;;;;4976111;28;20034;-81
2022/09/04 09:35:32;;;;;;;15.88;12.43;;;;;;;;;;4984173;28;20054;-83
2022/09/04 09:38:01;;;;;;;13.63;12.10;;;;;;;;;;4962393;28;20481;-79
2022/09/04 09:40:27;;;;;;;13.52;12.15;;;;;;;;;;4978990;28;20063;-86
2022/09/04 09:43:00;;;;;;;13.80;11.95;;;;;;;;;;4985467;28;20035;-82
2022/09/04 09:45:45;;;;;;;15.93;12.88;;;;;;;;;;4977226;28;20098;-77
2022/09/04 09:48:11;;;;;;;14.82;12.60;;;;;;;;;;4981318;28;20511;-86
2022/09/04 09:50:40;;;;;;;13.13;11.43;;;;;;;;;;4988255;28;20125;-87
2022/09/04 09:53:09;;;;;;;11.40;10.20;;;;;;;;;;4976192;28;20381;-68
2022/09/04 09:56:02;;;;;;;12.32;10.68;;;;;;;;;;4979092;28;20038;-84
2022/09/04 09:58:46;;;;;;;11.05;9.95;;;;;;;;;;4977338;28;20053;-79
2022/09/04 10:01:23;;;;;;;12.40;9.85;;;;;;;;;;4980459;28;20082;-83
2022/09/04 10:04:10;;;;;;;11.52;10.30;;;;;;;;;;4975769;28;20488;-75
2022/09/04 10:06:55;;;;;;;10.70;9.20;;;;;;;;;;4988767;28;20041;-75
2022/09/04 10:09:40;;;;;;;10.55;9.25;;;;;;;;;;4979677;28;20027;-84
2022/09/04 10:12:15;;;;;;;9.77;8.77;;;;;;;;;;4981604;28;20384;-76
2022/09/04 10:15:00;;;;;;;13.95;10.13;;;;;;;;;;4977555;28;20031;-84
2022/09/04 10:17:26;;;;;;;12.88;9.75;;;;;;;;;;4989542;28;20050;-84
2022/09/04 10:20:19;;;;;;;11.20;9.63;;;;;;;;;;4986251;28;20030;-84
2022/09/04 10:22:51;;;;;;;12.82;9.25;;;;;;;;;;4948987;28;20034;-79
2022/09/04 10:25:29;;;;;;;10.73;8.85;;;;;;;;;;4982835;28;20591;-84
2022/09/04 10:28:05;;;;;;;10.10;9.07;;;;;;;;;;4983697;28;20440;-74
2022/09/04 10:30:51;;;;;;;9.68;8.52;;;;;;;;;;4979555;28;20404;-81
2022/09/04 10:33:17;;;;;;;11.20;10.10;;;;;;;;;;4966150;28;20101;-80
2022/09/04 10:36:12;;;;;;;11.57;10.38;;;;;;;;;;4979340;28;20034;-86
2022/09/04 10:40:34;;;;;;;13.75;11.60;;;;;;;;;;4982015;28;20031;-86
2022/09/04 10:41:36;;;;;;;16.33;10.93;;;;;;;;;;4984692;28;20146;-82
2022/09/04 10:44:27;;;;;;;14.30;10.25;;;;;;;;;;4980730;28;20062;-84
2022/09/04 10:46:57;;;;;;;12.05;9.48;;;;;;;;;;4975371;28;20062;-82
2022/09/04 10:49:26;;;;;;;11.55;10.07;;;;;;;;;;4986203;28;20049;-86
2022/09/04 10:52:11;;;;;;;12.95;10.57;;;;;;;;;;4977343;28;20109;-87
2022/09/04 10:54:40;;;;;;;12.75;10.57;;;;;;;;;;4979859;28;20138;-86
2022/09/04 10:57:21;;;;;;;11.75;10.52;;;;;;;;;;4987176;28;20031;-76
2022/09/04 10:59:52;;;;;;;12.13;10.93;;;;;;;;;;4988645;28;20119;-69
2022/09/04 11:02:31;;;;;;;11.73;9.90;;;;;;;;;;4991735;28;20046;-70
2022/09/04 11:05:19;;;;;;;14.27;11.60;;;;;;;;;;4981447;28;20097;-78
2022/09/04 11:07:48;;;;;;;12.48;11.30;;;;;;;;;;4974414;28;20366;-70
2022/09/04 11:10:38;;;;;;;11.57;9.05;;;;;;;;;;4981906;28;20054;-73
2022/09/04 11:13:25;;;;;;;10.77;9.77;;;;;;;;;;4981537;28;20141;-74
2022/09/04 11:16:09;;;;;;;52.65;12.07;;;;;;;;;;4966193;28;20070;-84
2022/09/04 11:18:54;;;;;;;11.38;10.25;;;;;;;;;;4986958;28;20070;-90
2022/09/04 11:21:28;;;;;;;12.52;9.73;;;;;;;;;;4982093;28;20038;-74
2022/09/04 11:24:05;;;;;;;12.65;10.10;;;;;;;;;;4980973;28;20515;-77
2022/09/04 11:26:36;;;;;;;13.70;10.35;;;;;;;;;;4977734;28;20106;-90
2022/09/04 11:29:09;;;;;;;10.00;8.88;;;;;;;;;;4982855;28;20030;-69
2022/09/04 11:31:49;;;;;;;11.40;10.30;;;;;;;;;;4984457;28;20488;-69
2022/09/04 11:34:34;;;;;;;10.98;9.88;;;;;;;;;;4983099;28;20023;-84
2022/09/04 11:37:19;;;;;;;14.30;10.95;;;;;;;;;;4987923;28;20037;-76
2022/09/04 11:39:45;;;;;;;11.73;9.48;;;;;;;;;;4974192;28;20023;-70
2022/09/04 11:42:16;;;;;;;10.77;8.88;;;;;;;;;;4957226;28;20118;-91
2022/09/04 11:45:09;;;;;;;9.98;9.05;;;;;;;;;;4974230;28;20027;-91
2022/09/04 11:47:55;;;;;;;9.82;8.82;;;;;;;;;;4938446;28;20042;-89
2022/09/04 11:50:33;;;;;;;12.35;11.02;;;;;;;;;;4975433;28;20532;-89
2022/09/04 11:53:11;;;;;;;13.93;12.02;;;;;;;;;;4988325;28;20015;-92
2022/09/04 11:55:56;;;;;;;112.25;18.20;;;;;;;;;;4977059;28;20500;-80
2022/09/04 11:58:26;;;;;;;15.93;11.27;;;;;;;;;;4976813;28;20027;-88
2022/09/04 12:01:15;;;;;;;17.08;11.70;;;;;;;;;;4975203;28;20536;-70
2022/09/04 12:03:48;;;;;;;10.13;9.07;;;;;;;;;;4973013;28;20054;-78
2022/09/04 12:06:14;;;;;;;11.77;10.30;;;;;;;;;;4977780;28;20042;-74
2022/09/04 12:08:59;;;;;;;10.38;9.38;;;;;;;;;;4977786;28;20035;-81
2022/09/04 12:11:44;;;;;;;11.40;10.18;;;;;;;;;;4978741;28;20031;-74
2022/09/04 12:14:14;;;;;;;10.40;9.38;;;;;;;;;;5004498;28;20061;-75
2022/09/04 12:16:52;;;;;;;12.00;10.77;;;;;;;;;;4986218;28;20100;-79
2022/09/04 12:19:25;;;;;;;12.55;9.98;;;;;;;;;;4986580;28;20053;-80
2022/09/04 12:21:52;;;;;;;;;;;;;;;;;;4990641;28;20561;-82
2022/09/04 12:24:33;;;;;;;10.25;9.25;;;;;;;;;;4979960;28;19910;-80
2022/09/04 12:27:00;;;;;;;13.57;9.85;;;;;;;;;;4981535;28;20142;-88
2022/09/04 12:29:38;;;;;;;13.23;10.07;;;;;;;;;;4994674;28;20030;-88
2022/09/04 12:32:05;;;;;;;12.25;10.23;;;;;;;;;;4988346;28;20648;-82
2022/09/04 12:34:47;;;;;;;14.35;11.15;;;;;;;;;;4992509;28;20027;-81
2022/09/04 12:37:26;;;;;;;12.48;10.48;;;;;;;;;;4983818;28;20042;-85
2022/09/04 12:39:55;;;;;;;18.58;14.20;;;;;;;;;;4978776;28;20468;-88
2022/09/04 12:42:28;;;;;;;14.05;10.90;;;;;;;;;;4977937;28;20022;-75
2022/09/04 12:45:12;;;;;;;17.00;11.50;;;;;;;;;;4977556;28;20022;-88
2022/09/04 12:47:41;;;;;;;13.05;10.20;;;;;;;;;;4977410;28;20125;-72
2022/09/04 12:50:26;;;;;;;12.48;11.18;;;;;;;;;;4977017;28;20023;-79
2022/09/04 12:52:55;;;;;;;12.57;10.85;;;;;;;;;;4982506;28;20769;-79
2022/09/04 12:55:24;;;;;;;12.82;11.38;;;;;;;;;;4985043;28;20029;-73
2022/09/04 12:58:06;;;;;;;11.98;10.32;;;;;;;;;;4980826;28;20436;-73
2022/09/04 13:00:37;;;;;;;11.73;10.52;;;;;;;;;;4981071;28;20057;-79
2022/09/04 13:03:09;;;;;;;11.32;10.23;;;;;;;;;;4979913;28;20034;-80
2022/09/04 13:05:38;;;;;;;11.65;10.45;;;;;;;;;;4981571;28;20113;-80
2022/09/04 13:08:04;;;;;;;13.40;11.57;;;;;;;;;;4983382;28;20038;-77
2022/09/04 13:10:32;;;;;;;15.32;11.40;;;;;;;;;;4981390;28;20535;-78
2022/09/04 13:13:34;;;;;;;12.52;10.80;;;;;;;;;;4980433;28;20096;-78
2022/09/04 13:16:29;;;;;;;12.57;10.52;;;;;;;;;;4880178;29;20036;-82
2022/09/04 13:19:01;;;;;;;11.35;10.23;;;;;;;;;;4857595;29;20056;-74
2022/09/04 13:21:45;;;;;;;11.38;10.27;;;;;;;;;;4858859;29;20108;-78
2022/09/04 13:24:30;;;;;;;11.38;10.27;;;;;;;;;;4856785;29;20496;-72
2022/09/04 13:27:08;;;;;;;12.70;11.30;;;;;;;;;;4853861;29;20146;-74
2022/09/04 13:29:39;;;;;;;12.95;11.65;;;;;;;;;;4852307;29;20416;-78
2022/09/04 13:32:18;;;;;;;12.80;11.57;;;;;;;;;;4854818;29;20045;-79
2022/09/04 13:35:03;;;;;;;12.27;11.07;;;;;;;;;;4858628;29;20040;-73
2022/09/04 13:37:32;;;;;;;13.15;11.95;;;;;;;;;;4860412;29;20093;-72
2022/09/04 13:40:05;;;;;;;13.13;11.73;;;;;;;;;;4854296;29;20397;-84
2022/09/04 13:42:43;;;;;;;13.43;12.02;;;;;;;;;;4858919;29;20158;-82
2022/09/04 13:45:12;;;;;;;14.32;11.98;;;;;;;;;;4846026;29;20567;-72
2022/09/04 13:47:53;;;;;;;12.93;11.63;;;;;;;;;;4852442;29;20152;-83
2022/09/04 13:50:19;;;;;;;11.25;10.15;;;;;;;;;;4895863;29;20036;-82
2022/09/04 13:52:50;;;;;;;12.35;11.05;;;;;;;;;;4927021;29;20023;-83
2022/09/04 13:55:24;;;;;;;14.45;12.77;;;;;;;;;;4957550;28;20060;-86
2022/09/04 13:57:56;;;;;;;13.02;11.73;;;;;;;;;;4982130;28;21642;-82
2022/09/04 14:00:22;;;;;;;12.70;11.50;;;;;;;;;;4977834;28;20043;-84
2022/09/04 14:02:54;;;;;;;13.40;11.07;;;;;;;;;;4985127;28;20030;-80
2022/09/04 14:05:21;;;;;;;12.93;10.75;;;;;;;;;;4982063;28;20031;-87
2022/09/04 14:07:50;;;;;;;13.13;11.65;;;;;;;;;;4968671;28;20039;-82
2022/09/04 14:10:16;;;;;;;15.25;11.48;;;;;;;;;;4976070;28;20438;-87
2022/09/04 14:13:01;;;;;;;12.70;11.48;;;;;;;;;;4976033;28;20477;-80
2022/09/04 14:15:29;;;;;;;14.13;12.35;;;;;;;;;;4988984;28;20434;-84
2022/09/04 14:18:19;;;;;;;14.57;11.93;;;;;;;;;;5005107;28;20018;-87
2022/09/04 14:20:56;;;;;;;13.63;12.25;;;;;;;;;;4990881;28;20053;-78
2022/09/04 14:23:28;;;;;;;14.70;13.07;;;;;;;;;;4975534;28;20023;-89
2022/09/04 14:26:13;;;;;;;15.48;12.40;;;;;;;;;;4975985;28;20026;-81
2022/09/04 14:28:39;;;;;;;14.82;13.00;;;;;;;;;;4982404;28;20106;-81
2022/09/04 14:31:33;;;;;;;17.05;11.95;;;;;;;;;;4980653;28;20041;-80
2022/09/04 14:34:15;;;;;;;12.10;10.77;;;;;;;;;;4974265;28;20067;-81
2022/09/04 14:36:55;;;;;;;20.50;12.85;;;;;;;;;;4975537;28;20027;-89
2022/09/04 14:39:26;;;;;;;12.60;10.85;;;;;;;;;;4974955;28;20019;-79
2022/09/04 14:42:11;;;;;;;12.15;10.32;;;;;;;;;;4975422;28;20022;-87
2022/09/04 14:44:37;;;;;;;11.82;10.63;;;;;;;;;;4989697;28;20027;-88
2022/09/04 14:47:24;;;;;;;10.60;9.57;;;;;;;;;;4975479;28;20050;-84
2022/09/04 14:49:52;;;;;;;16.88;11.75;;;;;;;;;;4975341;28;20026;-88
2022/09/04 14:52:23;;;;;;;12.38;10.23;;;;;;;;;;4975691;28;20035;-88
2022/09/04 14:54:53;;;;;;;12.63;10.13;;;;;;;;;;4975329;28;20086;-89
2022/09/04 14:57:38;;;;;;;11.38;9.93;;;;;;;;;;4975446;28;20050;-89
2022/09/04 15:00:16;;;;;;;12.90;10.13;;;;;;;;;;4979263;28;20034;-83
2022/09/04 15:02:42;;;;;;;11.95;10.75;;;;;;;;;;4967604;28;20034;-86
2022/09/04 15:05:20;;;;;;;10.80;9.60;;;;;;;;;;4975079;28;20031;-86
2022/09/04 15:07:51;;;;;;;11.68;10.23;;;;;;;;;;4976863;28;20042;-84
2022/09/04 15:10:17;;;;;;;10.27;9.18;;;;;;;;;;4978374;28;20037;-84
2022/09/04 15:12:45;;;;;;;13.00;11.02;;;;;;;;;;4986814;28;20019;-87
2022/09/04 15:15:18;;;;;;;12.48;9.73;;;;;;;;;;4978996;28;20110;-71
2022/09/04 15:18:00;;;;;;;12.77;9.82;;;;;;;;;;4975957;28;20034;-86
2022/09/04 15:20:27;;;;;;;12.38;9.98;;;;;;;;;;4982217;28;20480;-73